Hengoed, United Kingdom
Current Conditions -  °F | °C
As of 8:50 PM on Tuesday 27 Jan 2015 (Local Time) from EGFF Reporting Station
Overcast Overcast  
Wind Chill: 38°   Ceiling: 1400
Heat Index: 45°   Visibility: 6mi
Dew Point: 43°   Wind: 15mph
Humidity: 93%   Direction: 270°W
Pressure: 30.18"   Gusts: NA
Location:  51.64°N, 3.24°W
Report Text: EGFF 272050Z AUTO 27013KT 9999 SCT004 BKN014 OVC022 07/06 Q1022
Loading
Personal Weather Stations






























Interactive Weather Map New forecast layout! Learn more

10-Day Weather Forecast

Advertisements
Track Severe Weather on mobile